sensor_id;sensor_type;location;lat;lon;timestamp;P1;durP1;ratioP1;P2;durP2;ratioP2
68593;SDS011;55563;52.416;13.548;2024-02-16T00:01:06;5.03;;;3.38;;
68593;SDS011;55563;52.416;13.548;2024-02-16T00:03:07;4.68;;;3.17;;
68593;SDS011;55563;52.416;13.548;2024-02-16T00:05:07;4.55;;;3.13;;
68593;SDS011;55563;52.416;13.548;2024-02-16T00:07:08;5.43;;;3.58;;
68593;SDS011;55563;52.416;13.548;2024-02-16T00:09:08;5.60;;;3.60;;
68593;SDS011;55563;52.416;13.548;2024-02-16T00:11:10;5.97;;;3.95;;
68593;SDS011;55563;52.416;13.548;2024-02-16T00:13:10;5.93;;;3.63;;
68593;SDS011;55563;52.416;13.548;2024-02-16T00:17:12;7.50;;;3.47;;
68593;SDS011;55563;52.416;13.548;2024-02-16T00:19:13;5.35;;;3.63;;
68593;SDS011;55563;52.416;13.548;2024-02-16T00:21:14;6.57;;;4.15;;
68593;SDS011;55563;52.416;13.548;2024-02-16T00:23:14;7.47;;;3.83;;
68593;SDS011;55563;52.416;13.548;2024-02-16T00:25:15;6.45;;;4.07;;
68593;SDS011;55563;52.416;13.548;2024-02-16T00:27:15;7.07;;;3.72;;
68593;SDS011;55563;52.416;13.548;2024-02-16T00:29:16;6.18;;;3.88;;
68593;SDS011;55563;52.416;13.548;2024-02-16T00:31:17;5.97;;;3.72;;
68593;SDS011;55563;52.416;13.548;2024-02-16T00:33:17;5.80;;;3.83;;
68593;SDS011;55563;52.416;13.548;2024-02-16T00:35:19;7.30;;;4.32;;
68593;SDS011;55563;52.416;13.548;2024-02-16T00:37:19;5.78;;;3.88;;
68593;SDS011;55563;52.416;13.548;2024-02-16T00:39:20;6.85;;;4.45;;
68593;SDS011;55563;52.416;13.548;2024-02-16T00:41:22;6.72;;;4.10;;
68593;SDS011;55563;52.416;13.548;2024-02-16T00:43:23;6.43;;;4.40;;
68593;SDS011;55563;52.416;13.548;2024-02-16T00:45:24;6.07;;;4.35;;
68593;SDS011;55563;52.416;13.548;2024-02-16T00:47:25;7.25;;;4.32;;
68593;SDS011;55563;52.416;13.548;2024-02-16T00:49:27;6.85;;;4.10;;
68593;SDS011;55563;52.416;13.548;2024-02-16T00:51:27;6.50;;;4.28;;
68593;SDS011;55563;52.416;13.548;2024-02-16T00:53:29;6.70;;;4.32;;
68593;SDS011;55563;52.416;13.548;2024-02-16T00:55:30;7.50;;;4.30;;
68593;SDS011;55563;52.416;13.548;2024-02-16T00:57:31;6.53;;;3.95;;
68593;SDS011;55563;52.416;13.548;2024-02-16T00:59:33;6.80;;;3.85;;
68593;SDS011;55563;52.416;13.548;2024-02-16T01:01:34;6.55;;;4.50;;
68593;SDS011;55563;52.416;13.548;2024-02-16T01:03:36;5.78;;;3.88;;
68593;SDS011;55563;52.416;13.548;2024-02-16T01:05:39;7.32;;;4.43;;
68593;SDS011;55563;52.416;13.548;2024-02-16T01:07:41;7.32;;;4.40;;
68593;SDS011;55563;52.416;13.548;2024-02-16T01:09:42;8.07;;;4.60;;
68593;SDS011;55563;52.416;13.548;2024-02-16T01:11:43;7.95;;;4.65;;
68593;SDS011;55563;52.416;13.548;2024-02-16T01:13:43;7.20;;;4.57;;
68593;SDS011;55563;52.416;13.548;2024-02-16T01:15:46;7.38;;;4.28;;
68593;SDS011;55563;52.416;13.548;2024-02-16T01:17:46;7.70;;;4.40;;
68593;SDS011;55563;52.416;13.548;2024-02-16T01:19:47;7.28;;;4.55;;
68593;SDS011;55563;52.416;13.548;2024-02-16T01:21:48;7.38;;;4.30;;
68593;SDS011;55563;52.416;13.548;2024-02-16T01:23:52;7.20;;;4.68;;
68593;SDS011;55563;52.416;13.548;2024-02-16T01:25:53;6.97;;;4.50;;
68593;SDS011;55563;52.416;13.548;2024-02-16T01:27:54;7.50;;;4.57;;
68593;SDS011;55563;52.416;13.548;2024-02-16T01:29:55;7.28;;;4.32;;
68593;SDS011;55563;52.416;13.548;2024-02-16T01:31:55;7.47;;;4.57;;
68593;SDS011;55563;52.416;13.548;2024-02-16T01:33:56;6.95;;;4.70;;
68593;SDS011;55563;52.416;13.548;2024-02-16T01:35:57;7.45;;;4.47;;
68593;SDS011;55563;52.416;13.548;2024-02-16T01:37:57;7.05;;;4.75;;
68593;SDS011;55563;52.416;13.548;2024-02-16T01:39:58;7.95;;;5.05;;
68593;SDS011;55563;52.416;13.548;2024-02-16T01:41:59;8.45;;;5.45;;
68593;SDS011;55563;52.416;13.548;2024-02-16T01:44:00;7.70;;;5.35;;
68593;SDS011;55563;52.416;13.548;2024-02-16T01:48:01;8.65;;;4.50;;
68593;SDS011;55563;52.416;13.548;2024-02-16T01:50:02;8.30;;;5.30;;
68593;SDS011;55563;52.416;13.548;2024-02-16T01:52:04;8.43;;;5.05;;
68593;SDS011;55563;52.416;13.548;2024-02-16T01:56:05;6.65;;;4.63;;
68593;SDS011;55563;52.416;13.548;2024-02-16T01:58:07;9.13;;;5.20;;
68593;SDS011;55563;52.416;13.548;2024-02-16T02:00:07;8.23;;;4.93;;
68593;SDS011;55563;52.416;13.548;2024-02-16T02:02:09;7.28;;;4.82;;
68593;SDS011;55563;52.416;13.548;2024-02-16T02:04:09;7.63;;;5.00;;
68593;SDS011;55563;52.416;13.548;2024-02-16T02:06:10;8.27;;;4.75;;
68593;SDS011;55563;52.416;13.548;2024-02-16T02:08:11;8.00;;;5.20;;
68593;SDS011;55563;52.416;13.548;2024-02-16T02:10:13;8.98;;;5.50;;
68593;SDS011;55563;52.416;13.548;2024-02-16T02:12:13;9.13;;;4.90;;
68593;SDS011;55563;52.416;13.548;2024-02-16T02:14:14;6.40;;;4.57;;
68593;SDS011;55563;52.416;13.548;2024-02-16T02:16:14;7.32;;;5.10;;
68593;SDS011;55563;52.416;13.548;2024-02-16T02:18:16;7.97;;;4.88;;
68593;SDS011;55563;52.416;13.548;2024-02-16T02:20:16;7.85;;;5.25;;
68593;SDS011;55563;52.416;13.548;2024-02-16T02:22:17;8.15;;;5.40;;
68593;SDS011;55563;52.416;13.548;2024-02-16T02:24:20;9.50;;;5.15;;
68593;SDS011;55563;52.416;13.548;2024-02-16T02:26:21;8.48;;;5.20;;
68593;SDS011;55563;52.416;13.548;2024-02-16T02:28:22;8.35;;;4.97;;
68593;SDS011;55563;52.416;13.548;2024-02-16T02:30:24;7.78;;;4.90;;
68593;SDS011;55563;52.416;13.548;2024-02-16T02:32:24;7.80;;;5.10;;
68593;SDS011;55563;52.416;13.548;2024-02-16T02:34:25;7.28;;;4.75;;
68593;SDS011;55563;52.416;13.548;2024-02-16T02:36:26;9.25;;;5.07;;
68593;SDS011;55563;52.416;13.548;2024-02-16T02:38:26;7.75;;;4.80;;
68593;SDS011;55563;52.416;13.548;2024-02-16T02:40:27;7.40;;;4.53;;
68593;SDS011;55563;52.416;13.548;2024-02-16T02:42:28;7.45;;;4.95;;
68593;SDS011;55563;52.416;13.548;2024-02-16T02:44:28;6.47;;;4.57;;
68593;SDS011;55563;52.416;13.548;2024-02-16T02:46:31;7.53;;;4.97;;
68593;SDS011;55563;52.416;13.548;2024-02-16T02:48:32;7.72;;;4.80;;
68593;SDS011;55563;52.416;13.548;2024-02-16T02:50:32;7.05;;;4.15;;
68593;SDS011;55563;52.416;13.548;2024-02-16T02:52:33;6.90;;;4.13;;
68593;SDS011;55563;52.416;13.548;2024-02-16T02:54:33;7.95;;;4.80;;
68593;SDS011;55563;52.416;13.548;2024-02-16T02:56:34;8.75;;;5.28;;
68593;SDS011;55563;52.416;13.548;2024-02-16T02:58:35;7.80;;;4.68;;
68593;SDS011;55563;52.416;13.548;2024-02-16T03:00:36;7.88;;;4.65;;
68593;SDS011;55563;52.416;13.548;2024-02-16T03:02:37;7.28;;;4.25;;
68593;SDS011;55563;52.416;13.548;2024-02-16T03:04:39;8.80;;;4.57;;
68593;SDS011;55563;52.416;13.548;2024-02-16T03:06:39;8.73;;;4.75;;
68593;SDS011;55563;52.416;13.548;2024-02-16T03:08:40;6.82;;;4.18;;
68593;SDS011;55563;52.416;13.548;2024-02-16T03:10:41;10.10;;;5.00;;
68593;SDS011;55563;52.416;13.548;2024-02-16T03:12:41;7.30;;;4.40;;
68593;SDS011;55563;52.416;13.548;2024-02-16T03:14:42;8.43;;;4.85;;
68593;SDS011;55563;52.416;13.548;2024-02-16T03:16:42;7.18;;;4.57;;
68593;SDS011;55563;52.416;13.548;2024-02-16T03:18:43;7.53;;;4.78;;
68593;SDS011;55563;52.416;13.548;2024-02-16T03:20:44;8.55;;;5.25;;
68593;SDS011;55563;52.416;13.548;2024-02-16T03:22:48;7.00;;;4.72;;
68593;SDS011;55563;52.416;13.548;2024-02-16T03:24:49;7.65;;;4.88;;
68593;SDS011;55563;52.416;13.548;2024-02-16T03:26:49;7.22;;;4.53;;
68593;SDS011;55563;52.416;13.548;2024-02-16T03:28:50;6.80;;;4.80;;
68593;SDS011;55563;52.416;13.548;2024-02-16T03:30:50;7.63;;;4.60;;
68593;SDS011;55563;52.416;13.548;2024-02-16T03:32:51;7.28;;;4.93;;
68593;SDS011;55563;52.416;13.548;2024-02-16T03:34:52;8.00;;;5.18;;
68593;SDS011;55563;52.416;13.548;2024-02-16T03:36:53;8.07;;;4.78;;
68593;SDS011;55563;52.416;13.548;2024-02-16T03:38:54;6.20;;;4.35;;
68593;SDS011;55563;52.416;13.548;2024-02-16T03:40:55;7.13;;;4.97;;
68593;SDS011;55563;52.416;13.548;2024-02-16T03:42:56;7.22;;;4.32;;
68593;SDS011;55563;52.416;13.548;2024-02-16T03:44:57;8.43;;;5.28;;
68593;SDS011;55563;52.416;13.548;2024-02-16T03:46:58;6.97;;;4.28;;
68593;SDS011;55563;52.416;13.548;2024-02-16T03:48:59;7.15;;;4.45;;
68593;SDS011;55563;52.416;13.548;2024-02-16T03:50:59;8.98;;;4.68;;
68593;SDS011;55563;52.416;13.548;2024-02-16T03:53:00;7.85;;;4.70;;
68593;SDS011;55563;52.416;13.548;2024-02-16T03:55:00;7.38;;;4.70;;
68593;SDS011;55563;52.416;13.548;2024-02-16T03:57:01;8.63;;;5.18;;
68593;SDS011;55563;52.416;13.548;2024-02-16T03:59:04;6.82;;;4.45;;
68593;SDS011;55563;52.416;13.548;2024-02-16T04:03:07;6.60;;;3.97;;
68593;SDS011;55563;52.416;13.548;2024-02-16T04:05:08;7.97;;;4.43;;
68593;SDS011;55563;52.416;13.548;2024-02-16T04:07:08;6.63;;;4.28;;
68593;SDS011;55563;52.416;13.548;2024-02-16T04:09:09;6.75;;;4.15;;
68593;SDS011;55563;52.416;13.548;2024-02-16T04:11:11;7.63;;;4.35;;
68593;SDS011;55563;52.416;13.548;2024-02-16T04:13:13;7.82;;;5.30;;
68593;SDS011;55563;52.416;13.548;2024-02-16T04:15:14;6.75;;;4.30;;
68593;SDS011;55563;52.416;13.548;2024-02-16T04:17:14;7.47;;;4.20;;
68593;SDS011;55563;52.416;13.548;2024-02-16T04:19:15;6.82;;;4.68;;
68593;SDS011;55563;52.416;13.548;2024-02-16T04:21:15;7.25;;;4.38;;
68593;SDS011;55563;52.416;13.548;2024-02-16T04:23:17;6.28;;;4.13;;
68593;SDS011;55563;52.416;13.548;2024-02-16T04:25:18;7.38;;;4.53;;
68593;SDS011;55563;52.416;13.548;2024-02-16T04:27:18;6.60;;;4.30;;
68593;SDS011;55563;52.416;13.548;2024-02-16T04:29:19;6.57;;;4.22;;
68593;SDS011;55563;52.416;13.548;2024-02-16T04:31:19;7.57;;;4.53;;
68593;SDS011;55563;52.416;13.548;2024-02-16T04:33:20;6.45;;;4.07;;
68593;SDS011;55563;52.416;13.548;2024-02-16T04:35:21;5.88;;;3.78;;
68593;SDS011;55563;52.416;13.548;2024-02-16T04:37:22;6.63;;;4.00;;
68593;SDS011;55563;52.416;13.548;2024-02-16T04:39:23;5.43;;;4.22;;
68593;SDS011;55563;52.416;13.548;2024-02-16T04:41:24;6.53;;;4.15;;
68593;SDS011;55563;52.416;13.548;2024-02-16T04:43:25;6.72;;;4.32;;
68593;SDS011;55563;52.416;13.548;2024-02-16T04:45:25;7.07;;;4.32;;
68593;SDS011;55563;52.416;13.548;2024-02-16T04:47:27;6.47;;;4.05;;
68593;SDS011;55563;52.416;13.548;2024-02-16T04:49:28;6.30;;;3.72;;
68593;SDS011;55563;52.416;13.548;2024-02-16T04:51:28;7.07;;;4.15;;
68593;SDS011;55563;52.416;13.548;2024-02-16T04:53:29;7.78;;;4.00;;
68593;SDS011;55563;52.416;13.548;2024-02-16T04:55:30;8.73;;;4.32;;
68593;SDS011;55563;52.416;13.548;2024-02-16T04:57:32;6.40;;;4.47;;
68593;SDS011;55563;52.416;13.548;2024-02-16T04:59:33;7.00;;;4.50;;
68593;SDS011;55563;52.416;13.548;2024-02-16T05:01:34;6.22;;;3.63;;
68593;SDS011;55563;52.416;13.548;2024-02-16T05:03:34;6.53;;;4.00;;
68593;SDS011;55563;52.416;13.548;2024-02-16T05:05:35;6.05;;;4.30;;
68593;SDS011;55563;52.416;13.548;2024-02-16T05:07:36;7.18;;;4.10;;
68593;SDS011;55563;52.416;13.548;2024-02-16T05:09:36;6.15;;;3.75;;
68593;SDS011;55563;52.416;13.548;2024-02-16T05:11:37;7.32;;;4.20;;
68593;SDS011;55563;52.416;13.548;2024-02-16T05:13:38;7.03;;;3.78;;
68593;SDS011;55563;52.416;13.548;2024-02-16T05:15:39;6.15;;;4.00;;
68593;SDS011;55563;52.416;13.548;2024-02-16T05:17:40;5.45;;;3.38;;
68593;SDS011;55563;52.416;13.548;2024-02-16T05:19:41;7.25;;;3.92;;
68593;SDS011;55563;52.416;13.548;2024-02-16T05:21:41;6.43;;;4.30;;
68593;SDS011;55563;52.416;13.548;2024-02-16T05:23:42;5.88;;;3.90;;
68593;SDS011;55563;52.416;13.548;2024-02-16T05:25:43;5.72;;;3.53;;
68593;SDS011;55563;52.416;13.548;2024-02-16T05:27:44;7.03;;;4.47;;
68593;SDS011;55563;52.416;13.548;2024-02-16T05:29:45;7.35;;;4.80;;
68593;SDS011;55563;52.416;13.548;2024-02-16T05:31:47;7.07;;;4.22;;
68593;SDS011;55563;52.416;13.548;2024-02-16T05:33:51;7.03;;;4.15;;
68593;SDS011;55563;52.416;13.548;2024-02-16T05:35:52;6.72;;;4.45;;
68593;SDS011;55563;52.416;13.548;2024-02-16T05:37:55;6.60;;;4.30;;
68593;SDS011;55563;52.416;13.548;2024-02-16T05:39:56;6.55;;;4.50;;
68593;SDS011;55563;52.416;13.548;2024-02-16T05:42:08;5.85;;;3.75;;
68593;SDS011;55563;52.416;13.548;2024-02-16T05:44:09;6.10;;;3.95;;
68593;SDS011;55563;52.416;13.548;2024-02-16T05:46:17;6.22;;;3.72;;
68593;SDS011;55563;52.416;13.548;2024-02-16T05:48:19;7.10;;;4.15;;
68593;SDS011;55563;52.416;13.548;2024-02-16T05:50:20;5.75;;;3.85;;
68593;SDS011;55563;52.416;13.548;2024-02-16T05:52:22;7.60;;;4.45;;
68593;SDS011;55563;52.416;13.548;2024-02-16T05:54:23;6.07;;;4.13;;
68593;SDS011;55563;52.416;13.548;2024-02-16T05:56:24;6.82;;;3.95;;
68593;SDS011;55563;52.416;13.548;2024-02-16T05:58:25;5.05;;;3.53;;
68593;SDS011;55563;52.416;13.548;2024-02-16T06:00:26;7.25;;;4.25;;
68593;SDS011;55563;52.416;13.548;2024-02-16T06:02:27;7.28;;;4.03;;
68593;SDS011;55563;52.416;13.548;2024-02-16T06:04:28;6.97;;;3.97;;
68593;SDS011;55563;52.416;13.548;2024-02-16T06:06:28;7.13;;;4.28;;
68593;SDS011;55563;52.416;13.548;2024-02-16T06:08:29;6.47;;;4.03;;
68593;SDS011;55563;52.416;13.548;2024-02-16T06:10:30;5.97;;;4.00;;
68593;SDS011;55563;52.416;13.548;2024-02-16T06:14:32;6.35;;;4.03;;
68593;SDS011;55563;52.416;13.548;2024-02-16T06:16:33;6.43;;;3.95;;
68593;SDS011;55563;52.416;13.548;2024-02-16T06:18:35;7.18;;;4.32;;
68593;SDS011;55563;52.416;13.548;2024-02-16T06:20:36;7.13;;;4.25;;
68593;SDS011;55563;52.416;13.548;2024-02-16T06:22:37;7.68;;;4.38;;
68593;SDS011;55563;52.416;13.548;2024-02-16T06:24:37;7.05;;;3.95;;
68593;SDS011;55563;52.416;13.548;2024-02-16T06:26:38;7.22;;;4.75;;
68593;SDS011;55563;52.416;13.548;2024-02-16T06:28:39;8.80;;;5.30;;
68593;SDS011;55563;52.416;13.548;2024-02-16T06:30:39;7.80;;;4.35;;
68593;SDS011;55563;52.416;13.548;2024-02-16T06:32:40;6.85;;;4.10;;
68593;SDS011;55563;52.416;13.548;2024-02-16T06:34:41;6.13;;;3.83;;
68593;SDS011;55563;52.416;13.548;2024-02-16T06:36:42;5.82;;;3.97;;
68593;SDS011;55563;52.416;13.548;2024-02-16T06:38:42;5.95;;;4.28;;
68593;SDS011;55563;52.416;13.548;2024-02-16T06:40:43;6.32;;;3.95;;
68593;SDS011;55563;52.416;13.548;2024-02-16T06:42:43;8.13;;;4.13;;
68593;SDS011;55563;52.416;13.548;2024-02-16T06:44:44;7.95;;;4.32;;
68593;SDS011;55563;52.416;13.548;2024-02-16T06:46:44;7.70;;;4.35;;
68593;SDS011;55563;52.416;13.548;2024-02-16T06:48:45;5.55;;;3.80;;
68593;SDS011;55563;52.416;13.548;2024-02-16T06:50:46;7.38;;;4.65;;
68593;SDS011;55563;52.416;13.548;2024-02-16T06:52:46;7.13;;;4.75;;
68593;SDS011;55563;52.416;13.548;2024-02-16T06:54:47;7.38;;;4.50;;
68593;SDS011;55563;52.416;13.548;2024-02-16T06:56:49;6.70;;;3.92;;
68593;SDS011;55563;52.416;13.548;2024-02-16T06:58:51;7.13;;;4.05;;
68593;SDS011;55563;52.416;13.548;2024-02-16T07:00:52;8.35;;;4.25;;
68593;SDS011;55563;52.416;13.548;2024-02-16T07:02:52;6.18;;;4.55;;
68593;SDS011;55563;52.416;13.548;2024-02-16T07:04:53;7.05;;;4.72;;
68593;SDS011;55563;52.416;13.548;2024-02-16T07:06:54;6.22;;;4.22;;
68593;SDS011;55563;52.416;13.548;2024-02-16T07:08:54;7.00;;;4.28;;
68593;SDS011;55563;52.416;13.548;2024-02-16T07:10:55;5.53;;;3.75;;
68593;SDS011;55563;52.416;13.548;2024-02-16T07:12:56;7.05;;;4.05;;
68593;SDS011;55563;52.416;13.548;2024-02-16T07:14:57;6.28;;;3.88;;
68593;SDS011;55563;52.416;13.548;2024-02-16T07:16:57;7.00;;;4.40;;
68593;SDS011;55563;52.416;13.548;2024-02-16T07:18:58;6.57;;;4.32;;
68593;SDS011;55563;52.416;13.548;2024-02-16T07:20:59;5.75;;;4.20;;
68593;SDS011;55563;52.416;13.548;2024-02-16T07:22:59;6.10;;;4.13;;
68593;SDS011;55563;52.416;13.548;2024-02-16T07:25:00;5.43;;;3.70;;
68593;SDS011;55563;52.416;13.548;2024-02-16T07:27:02;6.75;;;5.03;;
68593;SDS011;55563;52.416;13.548;2024-02-16T07:29:02;5.47;;;3.78;;
68593;SDS011;55563;52.416;13.548;2024-02-16T07:31:03;7.05;;;4.07;;
68593;SDS011;55563;52.416;13.548;2024-02-16T07:33:05;6.25;;;4.05;;
68593;SDS011;55563;52.416;13.548;2024-02-16T07:35:07;5.28;;;3.67;;
68593;SDS011;55563;52.416;13.548;2024-02-16T07:37:10;6.05;;;3.40;;
68593;SDS011;55563;52.416;13.548;2024-02-16T07:39:11;6.07;;;3.97;;
68593;SDS011;55563;52.416;13.548;2024-02-16T07:43:13;6.18;;;3.70;;
68593;SDS011;55563;52.416;13.548;2024-02-16T07:45:14;5.50;;;3.72;;
68593;SDS011;55563;52.416;13.548;2024-02-16T07:47:14;9.27;;;6.15;;
68593;SDS011;55563;52.416;13.548;2024-02-16T07:49:15;9.38;;;5.10;;
68593;SDS011;55563;52.416;13.548;2024-02-16T07:51:16;9.15;;;6.15;;
68593;SDS011;55563;52.416;13.548;2024-02-16T07:53:17;7.65;;;4.45;;
68593;SDS011;55563;52.416;13.548;2024-02-16T07:55:18;6.38;;;3.88;;
68593;SDS011;55563;52.416;13.548;2024-02-16T07:57:18;7.43;;;4.40;;
68593;SDS011;55563;52.416;13.548;2024-02-16T07:59:19;7.55;;;4.28;;
68593;SDS011;55563;52.416;13.548;2024-02-16T08:01:19;7.25;;;4.28;;
68593;SDS011;55563;52.416;13.548;2024-02-16T08:03:20;6.13;;;3.70;;
68593;SDS011;55563;52.416;13.548;2024-02-16T08:05:21;7.28;;;4.18;;
68593;SDS011;55563;52.416;13.548;2024-02-16T08:07:22;6.60;;;4.22;;
68593;SDS011;55563;52.416;13.548;2024-02-16T08:09:23;6.55;;;3.95;;
68593;SDS011;55563;52.416;13.548;2024-02-16T08:11:23;7.55;;;4.45;;
68593;SDS011;55563;52.416;13.548;2024-02-16T08:13:24;8.70;;;4.55;;
68593;SDS011;55563;52.416;13.548;2024-02-16T08:15:25;7.32;;;4.63;;
68593;SDS011;55563;52.416;13.548;2024-02-16T08:17:26;7.10;;;4.30;;
68593;SDS011;55563;52.416;13.548;2024-02-16T08:19:31;6.43;;;4.22;;
68593;SDS011;55563;52.416;13.548;2024-02-16T08:23:35;6.72;;;4.38;;
68593;SDS011;55563;52.416;13.548;2024-02-16T08:25:35;7.30;;;4.57;;
68593;SDS011;55563;52.416;13.548;2024-02-16T08:27:36;7.95;;;4.50;;
68593;SDS011;55563;52.416;13.548;2024-02-16T08:29:38;9.38;;;5.20;;
68593;SDS011;55563;52.416;13.548;2024-02-16T08:31:39;5.78;;;3.83;;
68593;SDS011;55563;52.416;13.548;2024-02-16T08:33:39;7.18;;;4.68;;
68593;SDS011;55563;52.416;13.548;2024-02-16T08:35:40;7.35;;;4.47;;
68593;SDS011;55563;52.416;13.548;2024-02-16T08:37:41;6.78;;;4.25;;
68593;SDS011;55563;52.416;13.548;2024-02-16T08:39:41;7.53;;;4.47;;
68593;SDS011;55563;52.416;13.548;2024-02-16T08:41:42;8.18;;;4.93;;
68593;SDS011;55563;52.416;13.548;2024-02-16T08:43:44;6.82;;;4.25;;
68593;SDS011;55563;52.416;13.548;2024-02-16T08:45:45;6.90;;;4.47;;
68593;SDS011;55563;52.416;13.548;2024-02-16T08:47:45;6.75;;;4.28;;
68593;SDS011;55563;52.416;13.548;2024-02-16T08:49:46;6.03;;;4.05;;
68593;SDS011;55563;52.416;13.548;2024-02-16T08:51:47;9.70;;;5.57;;
68593;SDS011;55563;52.416;13.548;2024-02-16T08:53:48;7.55;;;4.85;;
68593;SDS011;55563;52.416;13.548;2024-02-16T08:55:49;7.35;;;4.40;;
68593;SDS011;55563;52.416;13.548;2024-02-16T08:57:49;5.55;;;3.72;;
68593;SDS011;55563;52.416;13.548;2024-02-16T08:59:50;6.68;;;4.50;;
68593;SDS011;55563;52.416;13.548;2024-02-16T09:01:50;7.45;;;4.18;;
68593;SDS011;55563;52.416;13.548;2024-02-16T09:03:51;6.43;;;3.80;;
68593;SDS011;55563;52.416;13.548;2024-02-16T09:05:54;7.90;;;5.03;;
68593;SDS011;55563;52.416;13.548;2024-02-16T09:07:55;7.75;;;4.65;;
68593;SDS011;55563;52.416;13.548;2024-02-16T09:09:55;7.53;;;4.30;;
68593;SDS011;55563;52.416;13.548;2024-02-16T09:11:56;6.82;;;4.32;;
68593;SDS011;55563;52.416;13.548;2024-02-16T09:13:58;7.25;;;4.15;;
68593;SDS011;55563;52.416;13.548;2024-02-16T09:15:59;6.18;;;4.05;;
68593;SDS011;55563;52.416;13.548;2024-02-16T09:18:00;5.72;;;3.72;;
68593;SDS011;55563;52.416;13.548;2024-02-16T09:20:00;5.80;;;3.80;;
68593;SDS011;55563;52.416;13.548;2024-02-16T09:22:03;6.93;;;4.20;;
68593;SDS011;55563;52.416;13.548;2024-02-16T09:24:06;7.53;;;4.28;;
68593;SDS011;55563;52.416;13.548;2024-02-16T09:26:10;8.38;;;4.35;;
68593;SDS011;55563;52.416;13.548;2024-02-16T09:28:11;5.90;;;3.80;;
68593;SDS011;55563;52.416;13.548;2024-02-16T09:30:12;7.03;;;4.15;;
68593;SDS011;55563;52.416;13.548;2024-02-16T09:32:13;8.07;;;4.38;;
68593;SDS011;55563;52.416;13.548;2024-02-16T09:34:14;7.53;;;4.40;;
68593;SDS011;55563;52.416;13.548;2024-02-16T09:36:14;7.13;;;4.70;;
68593;SDS011;55563;52.416;13.548;2024-02-16T09:38:15;7.97;;;4.25;;
68593;SDS011;55563;52.416;13.548;2024-02-16T09:40:15;8.07;;;5.13;;
68593;SDS011;55563;52.416;13.548;2024-02-16T09:42:18;8.20;;;5.28;;
68593;SDS011;55563;52.416;13.548;2024-02-16T09:44:20;6.03;;;3.90;;
68593;SDS011;55563;52.416;13.548;2024-02-16T09:46:21;7.53;;;4.50;;
68593;SDS011;55563;52.416;13.548;2024-02-16T09:48:24;6.97;;;4.50;;
68593;SDS011;55563;52.416;13.548;2024-02-16T09:50:27;6.47;;;4.03;;
68593;SDS011;55563;52.416;13.548;2024-02-16T09:54:31;5.65;;;3.45;;
68593;SDS011;55563;52.416;13.548;2024-02-16T09:56:34;5.93;;;3.78;;
68593;SDS011;55563;52.416;13.548;2024-02-16T09:58:35;5.50;;;4.03;;
68593;SDS011;55563;52.416;13.548;2024-02-16T10:00:36;5.40;;;3.88;;
68593;SDS011;55563;52.416;13.548;2024-02-16T10:02:40;8.18;;;4.13;;
68593;SDS011;55563;52.416;13.548;2024-02-16T10:04:43;5.85;;;3.67;;
68593;SDS011;55563;52.416;13.548;2024-02-16T10:06:46;6.18;;;4.10;;
68593;SDS011;55563;52.416;13.548;2024-02-16T10:08:49;8.18;;;4.30;;
68593;SDS011;55563;52.416;13.548;2024-02-16T10:11:00;6.80;;;3.60;;
68593;SDS011;55563;52.416;13.548;2024-02-16T10:13:04;6.72;;;3.88;;
68593;SDS011;55563;52.416;13.548;2024-02-16T10:15:06;7.03;;;4.20;;
68593;SDS011;55563;52.416;13.548;2024-02-16T10:17:07;6.55;;;3.92;;
68593;SDS011;55563;52.416;13.548;2024-02-16T10:19:09;6.18;;;4.07;;
68593;SDS011;55563;52.416;13.548;2024-02-16T10:21:11;5.78;;;4.10;;
68593;SDS011;55563;52.416;13.548;2024-02-16T10:23:11;7.10;;;4.00;;
68593;SDS011;55563;52.416;13.548;2024-02-16T10:25:12;5.45;;;3.55;;
68593;SDS011;55563;52.416;13.548;2024-02-16T10:29:17;5.53;;;3.67;;
68593;SDS011;55563;52.416;13.548;2024-02-16T10:31:20;5.88;;;3.45;;
68593;SDS011;55563;52.416;13.548;2024-02-16T10:33:28;6.57;;;3.83;;
68593;SDS011;55563;52.416;13.548;2024-02-16T10:35:30;5.32;;;3.55;;
68593;SDS011;55563;52.416;13.548;2024-02-16T10:37:31;7.28;;;4.20;;
68593;SDS011;55563;52.416;13.548;2024-02-16T10:39:32;7.18;;;3.70;;
68593;SDS011;55563;52.416;13.548;2024-02-16T10:41:34;6.57;;;3.90;;
68593;SDS011;55563;52.416;13.548;2024-02-16T10:43:36;6.45;;;3.92;;
68593;SDS011;55563;52.416;13.548;2024-02-16T10:45:37;5.60;;;3.95;;
68593;SDS011;55563;52.416;13.548;2024-02-16T10:47:39;6.03;;;3.75;;
68593;SDS011;55563;52.416;13.548;2024-02-16T10:49:39;6.10;;;3.72;;
68593;SDS011;55563;52.416;13.548;2024-02-16T10:51:43;5.82;;;3.90;;
68593;SDS011;55563;52.416;13.548;2024-02-16T10:53:46;5.25;;;3.50;;
68593;SDS011;55563;52.416;13.548;2024-02-16T10:55:49;5.65;;;3.63;;
68593;SDS011;55563;52.416;13.548;2024-02-16T10:57:50;5.88;;;3.50;;
68593;SDS011;55563;52.416;13.548;2024-02-16T10:59:53;5.13;;;3.78;;
68593;SDS011;55563;52.416;13.548;2024-02-16T11:02:02;4.60;;;3.45;;
68593;SDS011;55563;52.416;13.548;2024-02-16T11:06:11;6.57;;;3.42;;
68593;SDS011;55563;52.416;13.548;2024-02-16T11:08:16;4.97;;;3.40;;
68593;SDS011;55563;52.416;13.548;2024-02-16T11:10:18;5.28;;;3.60;;
68593;SDS011;55563;52.416;13.548;2024-02-16T11:12:19;11.27;;;7.10;;
68593;SDS011;55563;52.416;13.548;2024-02-16T11:14:22;10.23;;;5.70;;
68593;SDS011;55563;52.416;13.548;2024-02-16T11:16:24;6.22;;;3.92;;
68593;SDS011;55563;52.416;13.548;2024-02-16T11:18:25;4.85;;;3.85;;
68593;SDS011;55563;52.416;13.548;2024-02-16T11:22:27;4.80;;;3.85;;
68593;SDS011;55563;52.416;13.548;2024-02-16T11:24:32;6.05;;;3.55;;
68593;SDS011;55563;52.416;13.548;2024-02-16T11:26:41;4.20;;;3.00;;
68593;SDS011;55563;52.416;13.548;2024-02-16T11:28:43;5.00;;;3.10;;
68593;SDS011;55563;52.416;13.548;2024-02-16T11:30:43;5.53;;;3.78;;
68593;SDS011;55563;52.416;13.548;2024-02-16T11:32:44;4.28;;;3.22;;
68593;SDS011;55563;52.416;13.548;2024-02-16T11:34:46;4.53;;;3.15;;
68593;SDS011;55563;52.416;13.548;2024-02-16T11:36:47;5.72;;;3.45;;
68593;SDS011;55563;52.416;13.548;2024-02-16T11:38:48;6.20;;;3.45;;
68593;SDS011;55563;52.416;13.548;2024-02-16T11:40:52;3.92;;;3.17;;
68593;SDS011;55563;52.416;13.548;2024-02-16T11:42:58;4.45;;;3.20;;
68593;SDS011;55563;52.416;13.548;2024-02-16T11:45:00;4.35;;;3.17;;
68593;SDS011;55563;52.416;13.548;2024-02-16T11:47:01;4.45;;;2.92;;
68593;SDS011;55563;52.416;13.548;2024-02-16T11:49:05;4.00;;;2.90;;
68593;SDS011;55563;52.416;13.548;2024-02-16T11:51:06;4.13;;;2.78;;
68593;SDS011;55563;52.416;13.548;2024-02-16T11:53:07;4.10;;;2.55;;
68593;SDS011;55563;52.416;13.548;2024-02-16T11:55:08;3.97;;;2.65;;
68593;SDS011;55563;52.416;13.548;2024-02-16T11:57:09;3.60;;;2.85;;
68593;SDS011;55563;52.416;13.548;2024-02-16T11:59:13;3.45;;;2.47;;
68593;SDS011;55563;52.416;13.548;2024-02-16T12:01:15;4.55;;;2.55;;
68593;SDS011;55563;52.416;13.548;2024-02-16T12:03:18;3.20;;;2.30;;
68593;SDS011;55563;52.416;13.548;2024-02-16T12:05:20;3.00;;;2.30;;
68593;SDS011;55563;52.416;13.548;2024-02-16T12:07:20;3.17;;;2.33;;
68593;SDS011;55563;52.416;13.548;2024-02-16T12:09:21;3.03;;;2.25;;
68593;SDS011;55563;52.416;13.548;2024-02-16T12:11:23;3.33;;;2.42;;
68593;SDS011;55563;52.416;13.548;2024-02-16T12:13:24;3.25;;;2.45;;
68593;SDS011;55563;52.416;13.548;2024-02-16T12:15:24;2.90;;;2.20;;
68593;SDS011;55563;52.416;13.548;2024-02-16T12:17:26;3.28;;;2.28;;
68593;SDS011;55563;52.416;13.548;2024-02-16T12:19:26;2.80;;;2.50;;
68593;SDS011;55563;52.416;13.548;2024-02-16T12:21:27;3.30;;;2.45;;